Time;durP1;ratioP1;P1;durP2;ratioP2;P2;SDS_P1;SDS_P2;PMS_P1;PMS_P2;Temp;Humidity;BMP_temperature;BMP_pressure;BME280_temperature;BME280_humidity;BME280_pressure;Samples;Min_cycle;Max_cycle;Signal;HPM_P1;HPM_P2
2023/10/04 00:00:14;;;;;;;23.10;4.60;;;;;;;;;;5117515;27;20096;-72
2023/10/04 00:02:41;;;;;;;26.67;3.50;;;;;;;;;;5116853;27;20129;-70
2023/10/04 00:05:08;;;;;;;21.23;2.88;;;;;;;;;;5116734;27;20046;-69
2023/10/04 00:07:34;;;;;;;28.15;3.40;;;;;;;;;;5116547;27;20130;-70
2023/10/04 00:10:04;;;;;;;20.05;3.55;;;;;;;;;;5134598;27;20097;-70
2023/10/04 00:12:30;;;;;;;23.85;3.78;;;;;;;;;;5100481;28;20054;-70
2023/10/04 00:14:56;;;;;;;19.63;3.40;;;;;;;;;;5134667;27;20348;-71
2023/10/04 00:17:22;;;;;;;22.98;3.13;;;;;;;;;;5134578;27;20071;-71
2023/10/04 00:19:48;;;;;;;17.77;3.17;;;;;;;;;;5134869;27;20043;-70
2023/10/04 00:22:18;;;;;;;23.02;3.40;;;;;;;;;;5134491;27;20284;-71
2023/10/04 00:24:44;;;;;;;16.30;3.00;;;;;;;;;;5117431;28;20069;-69
2023/10/04 00:27:10;;;;;;;23.95;3.50;;;;;;;;;;5099467;28;20079;-71
2023/10/04 00:29:37;;;;;;;22.15;3.22;;;;;;;;;;5115820;28;20054;-70
2023/10/04 00:32:04;;;;;;;16.08;2.72;;;;;;;;;;5116241;28;20050;-70
2023/10/04 00:34:30;;;;;;;14.68;3.08;;;;;;;;;;5082816;28;20184;-71
2023/10/04 00:36:56;;;;;;;23.10;3.20;;;;;;;;;;5134154;28;20046;-71
2023/10/04 00:39:22;;;;;;;22.10;2.93;;;;;;;;;;5099169;28;20046;-70
2023/10/04 00:41:53;;;;;;;14.77;2.80;;;;;;;;;;5134064;28;20304;-69
2023/10/04 00:44:19;;;;;;;19.35;2.78;;;;;;;;;;5116337;28;20054;-71
2023/10/04 00:46:46;;;;;;;19.80;2.92;;;;;;;;;;5115859;28;20069;-71
2023/10/04 00:49:13;;;;;;;13.07;2.83;;;;;;;;;;5082821;28;20475;-70
2023/10/04 00:51:40;;;;;;;18.67;3.33;;;;;;;;;;5115727;28;20092;-69
2023/10/04 00:54:10;;;;;;;18.45;2.70;;;;;;;;;;5134363;28;20436;-70
2023/10/04 00:56:38;;;;;;;21.92;2.88;;;;;;;;;;5134357;28;20078;-70
2023/10/04 00:59:04;;;;;;;16.50;2.50;;;;;;;;;;5135923;27;20383;-70
2023/10/04 01:01:33;;;;;;;23.27;2.90;;;;;;;;;;5119871;27;20047;-69
2023/10/04 01:04:05;;;;;;;19.52;2.60;;;;;;;;;;5137925;27;20107;-70
2023/10/04 01:06:31;;;;;;;18.38;2.58;;;;;;;;;;5138854;27;20374;-69
2023/10/04 01:08:57;;;;;;;20.90;3.67;;;;;;;;;;5138190;27;20123;-69
2023/10/04 01:11:23;;;;;;;26.10;3.20;;;;;;;;;;5119616;27;20562;-69
2023/10/04 01:14:06;;;;;;;12.98;2.80;;;;;;;;;;5137940;27;20090;-70
2023/10/04 01:16:34;;;;;;;27.95;3.30;;;;;;;;;;5122343;27;20491;-69
2023/10/04 01:19:00;;;;;;;23.40;2.95;;;;;;;;;;5137865;27;20125;-69
2023/10/04 01:21:26;;;;;;;24.85;2.85;;;;;;;;;;5119750;27;20035;-69
2023/10/04 01:23:52;;;;;;;25.35;2.88;;;;;;;;;;5119226;27;20503;-69
2023/10/04 01:26:25;;;;;;;15.52;2.80;;;;;;;;;;5120470;27;20066;-69
2023/10/04 01:28:52;;;;;;;28.67;2.92;;;;;;;;;;5137817;27;20046;-69
2023/10/04 01:31:19;;;;;;;29.35;3.60;;;;;;;;;;5137610;27;20046;-70
2023/10/04 01:33:46;;;;;;;21.55;3.05;;;;;;;;;;5119415;27;20051;-70
2023/10/04 01:36:12;;;;;;;23.92;3.53;;;;;;;;;;5102363;27;20047;-70
2023/10/04 01:38:38;;;;;;;18.85;3.38;;;;;;;;;;5102397;27;20049;-70
2023/10/04 01:41:05;;;;;;;19.90;4.05;;;;;;;;;;5137147;27;20043;-69
2023/10/04 01:43:32;;;;;;;22.48;3.08;;;;;;;;;;5103057;27;20111;-69
2023/10/04 01:45:59;;;;;;;22.27;3.72;;;;;;;;;;5120094;27;20051;-70
2023/10/04 01:48:26;;;;;;;23.35;3.20;;;;;;;;;;5137379;27;20072;-69
2023/10/04 01:50:53;;;;;;;26.52;3.40;;;;;;;;;;5118806;27;20079;-69
2023/10/04 01:53:22;;;;;;;18.25;3.60;;;;;;;;;;5137507;27;20047;-70
2023/10/04 01:55:49;;;;;;;27.52;4.13;;;;;;;;;;5137094;27;20047;-70
2023/10/04 01:58:18;;;;;;;38.43;4.07;;;;;;;;;;5137225;27;20438;-69
2023/10/04 02:00:44;;;;;;;23.02;3.67;;;;;;;;;;5137178;27;20446;-70
2023/10/04 02:03:10;;;;;;;21.77;2.83;;;;;;;;;;5136954;27;20080;-69
2023/10/04 02:05:41;;;;;;;35.67;4.75;;;;;;;;;;5137595;27;20352;-68
2023/10/04 02:08:09;;;;;;;23.10;3.50;;;;;;;;;;5137451;27;20046;-68
2023/10/04 02:10:35;;;;;;;24.85;4.60;;;;;;;;;;5136221;27;20046;-69
2023/10/04 02:13:06;;;;;;;28.10;3.45;;;;;;;;;;5136761;27;20051;-69
2023/10/04 02:15:34;;;;;;;35.42;3.90;;;;;;;;;;5137380;27;20043;-68
2023/10/04 02:18:01;;;;;;;28.33;4.22;;;;;;;;;;5101697;27;20050;-70
2023/10/04 02:20:28;;;;;;;;;;;;;;;;;;5119743;27;20051;-69
2023/10/04 02:22:55;;;;;;;24.35;3.17;;;;;;;;;;5136500;27;20378;-70
2023/10/04 02:25:22;;;;;;;24.35;4.18;;;;;;;;;;5118807;27;20455;-70
2023/10/04 02:27:49;;;;;;;21.40;3.43;;;;;;;;;;5136435;27;20047;-70
2023/10/04 02:30:18;;;;;;;21.02;3.38;;;;;;;;;;5137048;27;20388;-69
2023/10/04 02:32:45;;;;;;;23.80;4.00;;;;;;;;;;5118266;27;20048;-70
2023/10/04 02:35:28;;;;;;;21.55;4.70;;;;;;;;;;5136313;27;20051;-71
2023/10/04 02:38:00;;;;;;;34.60;4.55;;;;;;;;;;5137051;27;20459;-70
2023/10/04 02:40:27;;;;;;;36.70;4.65;;;;;;;;;;5118515;27;20104;-69
2023/10/04 02:42:58;;;;;;;21.90;5.00;;;;;;;;;;5135704;27;20059;-72
2023/10/04 02:45:26;;;;;;;24.98;4.82;;;;;;;;;;5101892;27;20539;-70
2023/10/04 02:47:53;;;;;;;25.20;5.13;;;;;;;;;;5117914;27;20130;-70
2023/10/04 02:50:20;;;;;;;29.85;5.10;;;;;;;;;;5136046;27;20122;-71
2023/10/04 02:52:52;;;;;;;29.80;4.88;;;;;;;;;;5100936;27;20093;-69
2023/10/04 02:55:19;;;;;;;26.15;4.57;;;;;;;;;;5117913;27;20395;-71
2023/10/04 02:57:55;;;;;;;25.45;5.10;;;;;;;;;;5135880;27;20058;-68
2023/10/04 03:00:23;;;;;;;25.52;5.10;;;;;;;;;;5136370;27;20531;-70
2023/10/04 03:02:50;;;;;;;22.20;4.78;;;;;;;;;;5117670;27;20047;-70
2023/10/04 03:05:20;;;;;;;25.73;4.93;;;;;;;;;;5117415;27;20090;-69
2023/10/04 03:07:47;;;;;;;32.72;5.40;;;;;;;;;;5117828;27;20135;-69
2023/10/04 03:10:23;;;;;;;31.27;5.95;;;;;;;;;;5117388;27;20039;-70
2023/10/04 03:12:51;;;;;;;21.83;4.43;;;;;;;;;;5117317;27;20043;-70
2023/10/04 03:15:18;;;;;;;32.45;5.75;;;;;;;;;;5135370;27;20433;-69
2023/10/04 03:17:44;;;;;;;26.10;4.82;;;;;;;;;;5135538;27;20047;-69
2023/10/04 03:20:20;;;;;;;26.33;4.82;;;;;;;;;;5135419;27;20039;-69
2023/10/04 03:22:46;;;;;;;27.33;4.88;;;;;;;;;;5134975;27;20047;-69
2023/10/04 03:25:14;;;;;;;38.15;4.72;;;;;;;;;;5135394;27;20058;-70
2023/10/04 03:27:43;;;;;;;32.88;4.80;;;;;;;;;;5135261;27;20055;-69
2023/10/04 03:30:12;;;;;;;24.08;4.75;;;;;;;;;;5135021;27;20383;-68
2023/10/04 03:32:38;;;;;;;26.80;5.72;;;;;;;;;;5135191;27;20047;-70
2023/10/04 03:35:06;;;;;;;28.38;4.68;;;;;;;;;;5135086;27;20058;-70
2023/10/04 03:37:39;;;;;;;21.70;3.92;;;;;;;;;;5117771;27;20043;-69
2023/10/04 03:40:14;;;;;;;25.13;4.53;;;;;;;;;;5135088;27;20242;-70
2023/10/04 03:42:41;;;;;;;26.58;4.25;;;;;;;;;;5134877;27;20059;-70
2023/10/04 03:45:10;;;;;;;29.10;4.53;;;;;;;;;;5116824;27;20082;-69
2023/10/04 03:47:39;;;;;;;34.35;4.93;;;;;;;;;;5116833;27;20059;-69
2023/10/04 03:50:09;;;;;;;23.20;4.30;;;;;;;;;;5134808;27;20070;-70
2023/10/04 03:52:35;;;;;;;26.50;4.45;;;;;;;;;;5134837;27;20199;-70
2023/10/04 03:55:02;;;;;;;29.25;4.20;;;;;;;;;;5116729;27;20133;-70
2023/10/04 03:57:28;;;;;;;26.75;4.47;;;;;;;;;;5134739;27;20047;-69
2023/10/04 03:59:57;;;;;;;23.10;4.45;;;;;;;;;;5134679;27;20043;-70
2023/10/04 04:02:23;;;;;;;23.67;4.80;;;;;;;;;;5135469;27;20435;-70
2023/10/04 04:04:49;;;;;;;28.85;4.13;;;;;;;;;;5135471;27;20051;-70
2023/10/04 04:07:15;;;;;;;26.17;4.00;;;;;;;;;;5116771;27;20054;-71
2023/10/04 04:09:41;;;;;;;22.05;3.90;;;;;;;;;;5117227;27;20039;-70
2023/10/04 04:12:07;;;;;;;23.38;4.57;;;;;;;;;;5116042;27;20132;-70
2023/10/04 04:14:33;;;;;;;31.73;3.78;;;;;;;;;;5100285;27;20400;-70
2023/10/04 04:17:00;;;;;;;26.38;4.70;;;;;;;;;;5099502;27;20053;-69
2023/10/04 04:19:26;;;;;;;22.02;3.80;;;;;;;;;;5116053;27;20050;-69
2023/10/04 04:21:56;;;;;;;27.77;4.82;;;;;;;;;;5134452;27;20087;-68
2023/10/04 04:24:23;;;;;;;22.15;3.67;;;;;;;;;;5135108;27;20047;-69
2023/10/04 04:26:49;;;;;;;21.38;3.78;;;;;;;;;;5116224;28;20043;-71
2023/10/04 04:29:17;;;;;;;18.13;3.78;;;;;;;;;;5134301;27;20402;-69
2023/10/04 04:31:43;;;;;;;25.00;3.67;;;;;;;;;;5116044;28;20047;-69
2023/10/04 04:34:13;;;;;;;27.92;4.25;;;;;;;;;;5137336;27;20047;-76
2023/10/04 04:36:41;;;;;;;22.42;3.97;;;;;;;;;;5141673;27;20078;-69
2023/10/04 04:39:11;;;;;;;24.77;3.72;;;;;;;;;;5140694;27;20516;-69
2023/10/04 04:41:38;;;;;;;27.08;4.57;;;;;;;;;;5140750;27;20058;-71
2023/10/04 04:44:07;;;;;;;27.00;3.92;;;;;;;;;;5141506;27;20093;-71
2023/10/04 04:46:34;;;;;;;25.42;4.15;;;;;;;;;;5123854;27;20047;-73
2023/10/04 04:49:00;;;;;;;24.13;4.40;;;;;;;;;;5123838;27;20056;-72
2023/10/04 04:51:27;;;;;;;25.17;4.00;;;;;;;;;;5141848;27;20039;-70
2023/10/04 04:53:53;;;;;;;20.10;3.60;;;;;;;;;;5106504;27;20036;-70
2023/10/04 04:56:23;;;;;;;34.53;4.60;;;;;;;;;;5142171;27;20039;-71
2023/10/04 04:58:49;;;;;;;23.70;4.40;;;;;;;;;;5141658;27;20112;-69
2023/10/04 05:01:15;;;;;;;25.63;3.87;;;;;;;;;;5141120;27;20415;-70
2023/10/04 05:03:42;;;;;;;25.45;4.00;;;;;;;;;;5122984;27;20390;-70
2023/10/04 05:06:15;;;;;;;29.00;3.72;;;;;;;;;;5123733;27;20360;-70
2023/10/04 05:08:42;;;;;;;29.23;3.80;;;;;;;;;;5122788;27;20060;-70
2023/10/04 05:11:09;;;;;;;32.88;4.35;;;;;;;;;;5140464;27;20047;-71
2023/10/04 05:13:36;;;;;;;23.80;3.78;;;;;;;;;;5122353;27;20050;-70
2023/10/04 05:16:02;;;;;;;25.15;4.20;;;;;;;;;;5140652;27;20046;-71
2023/10/04 05:18:28;;;;;;;24.48;4.35;;;;;;;;;;5122160;27;20047;-71
2023/10/04 05:20:55;;;;;;;23.73;4.32;;;;;;;;;;5122346;27;20126;-70
2023/10/04 05:23:25;;;;;;;18.90;4.30;;;;;;;;;;5140444;27;20043;-70
2023/10/04 05:25:52;;;;;;;24.55;4.13;;;;;;;;;;5141153;27;20543;-71
2023/10/04 05:28:18;;;;;;;;;;;;;;;;;;5141526;27;20498;-70
2023/10/04 05:30:45;;;;;;;27.40;4.22;;;;;;;;;;5141153;27;19919;-71
2023/10/04 05:33:13;;;;;;;30.13;4.35;;;;;;;;;;5141161;27;20043;-71
2023/10/04 05:35:40;;;;;;;23.40;4.28;;;;;;;;;;5122158;27;20352;-70
2023/10/04 05:38:07;;;;;;;29.80;4.15;;;;;;;;;;5122762;27;20382;-71
2023/10/04 05:40:35;;;;;;;25.08;4.13;;;;;;;;;;5140810;27;20036;-70
2023/10/04 05:43:03;;;;;;;25.45;4.95;;;;;;;;;;5140750;27;20057;-71
2023/10/04 05:45:29;;;;;;;22.55;4.47;;;;;;;;;;5138028;27;20054;-69
2023/10/04 05:47:56;;;;;;;22.73;5.00;;;;;;;;;;5119006;27;20487;-70
2023/10/04 05:50:22;;;;;;;27.25;4.38;;;;;;;;;;5137409;27;20035;-70
2023/10/04 05:52:49;;;;;;;31.90;4.97;;;;;;;;;;5137073;27;20138;-70
2023/10/04 05:55:16;;;;;;;26.67;4.22;;;;;;;;;;5136880;27;20100;-70
2023/10/04 05:57:46;;;;;;;23.38;5.03;;;;;;;;;;5101998;27;20527;-70
2023/10/04 06:02:55;;;;;;;30.47;4.53;;;;;;;;;;5137396;27;20051;-70
2023/10/04 06:05:25;;;;;;;31.77;4.78;;;;;;;;;;5136699;27;20043;-72
2023/10/04 06:07:51;;;;;;;31.90;4.68;;;;;;;;;;5136732;27;20047;-70
2023/10/04 06:10:18;;;;;;;37.42;5.75;;;;;;;;;;5118392;27;20039;-69
2023/10/04 06:12:46;;;;;;;23.77;3.58;;;;;;;;;;5118328;27;20051;-72
2023/10/04 06:15:15;;;;;;;22.20;4.20;;;;;;;;;;5118820;27;20074;-70
2023/10/04 06:17:42;;;;;;;21.23;3.55;;;;;;;;;;5136542;27;20086;-70
2023/10/04 06:20:24;;;;;;;31.65;4.78;;;;;;;;;;5101735;27;20089;-69
2023/10/04 06:22:54;;;;;;;27.63;4.63;;;;;;;;;;5136981;27;20108;-70
2023/10/04 06:25:22;;;;;;;25.90;4.18;;;;;;;;;;5136710;27;20048;-71
2023/10/04 06:27:50;;;;;;;27.08;4.55;;;;;;;;;;5118719;27;20043;-70
2023/10/04 06:30:18;;;;;;;25.40;4.30;;;;;;;;;;5118020;27;20040;-69
2023/10/04 06:32:44;;;;;;;34.25;4.25;;;;;;;;;;5137081;27;20375;-70
2023/10/04 06:35:11;;;;;;;31.98;5.03;;;;;;;;;;5117914;27;20115;-69
2023/10/04 06:37:37;;;;;;;29.05;5.00;;;;;;;;;;5136990;27;20368;-70
2023/10/04 06:40:10;;;;;;;28.17;4.30;;;;;;;;;;5136498;27;20070;-70
2023/10/04 06:42:37;;;;;;;29.60;4.68;;;;;;;;;;5136400;27;20137;-70
2023/10/04 06:45:06;;;;;;;27.98;5.13;;;;;;;;;;5136616;27;20051;-69
2023/10/04 06:47:34;;;;;;;34.38;4.47;;;;;;;;;;5135865;27;20051;-70
2023/10/04 06:50:00;;;;;;;;;;;;;;;;;;5136312;27;20055;-71
2023/10/04 06:52:26;;;;;;;;;;;;;;;;;;5136400;27;19919;-70
2023/10/04 06:54:53;;;;;;;35.13;4.40;;;;;;;;;;5117491;27;19964;-68
2023/10/04 06:57:19;;;;;;;18.07;3.40;;;;;;;;;;5136228;27;20133;-71
2023/10/04 06:59:45;;;;;;;30.63;4.17;;;;;;;;;;5117415;27;20086;-69
2023/10/04 07:02:11;;;;;;;20.90;3.65;;;;;;;;;;5135702;27;20277;-73
2023/10/04 07:04:37;;;;;;;28.20;4.60;;;;;;;;;;5135488;27;20055;-70
2023/10/04 07:07:03;;;;;;;31.63;4.53;;;;;;;;;;5118207;27;20043;-70
2023/10/04 07:09:29;;;;;;;26.25;5.15;;;;;;;;;;5117314;27;20047;-69
2023/10/04 07:11:56;;;;;;;30.60;4.53;;;;;;;;;;5117111;27;20129;-69
2023/10/04 07:14:22;;;;;;;30.80;5.18;;;;;;;;;;5135649;27;20081;-70
2023/10/04 07:16:52;;;;;;;26.40;4.47;;;;;;;;;;5100511;27;20471;-69
2023/10/04 07:19:18;;;;;;;;;;;;;;;;;;5118176;27;20053;-69
2023/10/04 07:21:44;;;;;;;30.52;4.70;;;;;;;;;;5135889;27;19919;-69
2023/10/04 07:24:10;;;;;;;26.23;4.07;;;;;;;;;;5117088;27;20039;-68
2023/10/04 07:26:36;;;;;;;29.13;3.88;;;;;;;;;;5100158;27;20043;-69
2023/10/04 07:29:03;;;;;;;32.38;4.60;;;;;;;;;;5117045;27;20459;-71
2023/10/04 07:31:31;;;;;;;27.77;4.60;;;;;;;;;;5134994;27;20042;-70
2023/10/04 07:33:57;;;;;;;33.63;5.35;;;;;;;;;;5135187;27;20055;-69
2023/10/04 07:36:23;;;;;;;29.10;3.78;;;;;;;;;;5135244;27;20108;-70
2023/10/04 07:38:50;;;;;;;28.00;5.40;;;;;;;;;;5134962;27;20043;-70
2023/10/04 07:41:16;;;;;;;36.20;4.63;;;;;;;;;;5134897;27;20073;-69
2023/10/04 07:43:42;;;;;;;27.02;4.88;;;;;;;;;;5116616;27;20054;-70
2023/10/04 07:46:08;;;;;;;34.10;4.43;;;;;;;;;;5134713;27;20043;-70
2023/10/04 07:48:35;;;;;;;27.65;4.97;;;;;;;;;;5134884;27;20043;-70
2023/10/04 07:51:01;;;;;;;;;;;;;;;;;;5135001;27;20132;-69
2023/10/04 07:53:27;;;;;;;29.23;4.30;;;;;;;;;;5116756;27;19923;-69
2023/10/04 07:55:54;;;;;;;35.33;5.25;;;;;;;;;;5134745;27;20285;-70
2023/10/04 07:58:20;;;;;;;19.40;3.83;;;;;;;;;;5134388;27;20043;-70
2023/10/04 08:00:46;;;;;;;32.83;4.45;;;;;;;;;;5135179;27;20378;-71
2023/10/04 08:03:12;;;;;;;31.52;4.38;;;;;;;;;;5134771;27;20103;-70
2023/10/04 08:05:39;;;;;;;31.27;4.47;;;;;;;;;;5135144;27;20134;-69
2023/10/04 08:08:05;;;;;;;;;;;;;;;;;;5116580;27;20082;-70
2023/10/04 08:10:35;;;;;;;31.90;4.43;;;;;;;;;;5133913;27;20363;-70
2023/10/04 08:13:02;;;;;;;29.33;5.40;;;;;;;;;;5134915;27;20047;-70
2023/10/04 08:15:31;;;;;;;37.33;5.38;;;;;;;;;;5134553;27;20043;-71
2023/10/04 08:17:58;;;;;;;37.80;5.68;;;;;;;;;;5134374;27;20086;-71
2023/10/04 08:20:28;;;;;;;35.95;4.55;;;;;;;;;;5134358;27;20200;-71
2023/10/04 08:22:56;;;;;;;22.13;3.95;;;;;;;;;;5134612;27;20477;-70
2023/10/04 08:25:29;;;;;;;27.38;4.80;;;;;;;;;;5116485;27;20057;-71
2023/10/04 08:27:55;;;;;;;29.10;4.95;;;;;;;;;;5116004;27;20050;-70
2023/10/04 08:30:22;;;;;;;32.47;6.50;;;;;;;;;;5116184;28;20242;-72
2023/10/04 08:32:48;;;;;;;32.77;5.07;;;;;;;;;;5116111;28;20050;-72
2023/10/04 08:38:10;;;;;;;37.53;5.70;;;;;;;;;;5116551;28;20047;-70
2023/10/04 08:40:38;;;;;;;32.97;6.28;;;;;;;;;;5116138;28;20043;-70
2023/10/04 08:43:05;;;;;;;39.78;5.55;;;;;;;;;;5115712;28;20070;-71
2023/10/04 08:45:34;;;;;;;;;;;;;;;;;;5134261;28;20490;-72
2023/10/04 08:48:00;;;;;;;26.35;4.40;;;;;;;;;;5134150;28;20024;-71
2023/10/04 08:50:30;;;;;;;27.42;4.80;;;;;;;;;;5115774;28;20118;-70
2023/10/04 08:53:03;;;;;;;29.83;5.80;;;;;;;;;;5134145;28;20055;-69
2023/10/04 08:55:32;;;;;;;35.75;4.70;;;;;;;;;;5099500;28;20046;-71
2023/10/04 08:57:59;;;;;;;35.38;5.28;;;;;;;;;;5134165;28;20047;-70
2023/10/04 09:00:28;;;;;;;30.25;5.85;;;;;;;;;;5134245;28;20044;-72
2023/10/04 09:02:56;;;;;;;31.48;5.45;;;;;;;;;;5116027;28;20051;-69
2023/10/04 09:05:23;;;;;;;32.40;5.18;;;;;;;;;;5134200;28;20055;-71
2023/10/04 09:07:49;;;;;;;;;;;;;;;;;;5117108;28;20386;-72
2023/10/04 09:10:16;;;;;;;34.03;6.15;;;;;;;;;;5134092;28;19923;-71
2023/10/04 09:12:43;;;;;;;25.80;5.20;;;;;;;;;;5133997;28;20487;-70
2023/10/04 09:15:10;;;;;;;35.70;5.38;;;;;;;;;;5133889;28;20043;-71
2023/10/04 09:17:44;;;;;;;37.50;5.03;;;;;;;;;;5134489;28;20051;-69
2023/10/04 09:20:17;;;;;;;27.48;4.68;;;;;;;;;;5133762;27;20043;-69
2023/10/04 09:22:43;;;;;;;37.10;4.63;;;;;;;;;;5138099;27;20101;-69
2023/10/04 09:25:11;;;;;;;30.38;5.32;;;;;;;;;;5138000;27;20157;-71
2023/10/04 09:27:37;;;;;;;32.75;6.10;;;;;;;;;;5119659;27;20062;-70
2023/10/04 09:30:21;;;;;;;33.80;4.78;;;;;;;;;;5137591;27;20047;-71
2023/10/04 09:32:49;;;;;;;25.27;4.13;;;;;;;;;;5137890;27;20074;-71
2023/10/04 09:35:18;;;;;;;29.02;3.67;;;;;;;;;;5138002;27;20080;-72
2023/10/04 09:37:44;;;;;;;28.98;3.80;;;;;;;;;;5119231;27;20043;-70
2023/10/04 09:40:12;;;;;;;30.17;4.60;;;;;;;;;;5119929;27;20039;-68
2023/10/04 09:42:47;;;;;;;28.25;4.30;;;;;;;;;;5137016;27;20061;-72
2023/10/04 09:45:13;;;;;;;38.58;4.20;;;;;;;;;;5137293;27;20058;-71
2023/10/04 09:47:39;;;;;;;33.20;4.43;;;;;;;;;;5137281;27;20083;-69
2023/10/04 09:50:13;;;;;;;33.28;5.32;;;;;;;;;;5137173;27;20035;-69
2023/10/04 09:52:39;;;;;;;27.83;5.15;;;;;;;;;;5137808;27;20092;-69
2023/10/04 09:55:08;;;;;;;31.00;4.60;;;;;;;;;;5119290;27;20571;-69
2023/10/04 09:57:36;;;;;;;39.67;4.40;;;;;;;;;;5137986;27;20096;-70
2023/10/04 10:00:05;;;;;;;19.42;3.00;;;;;;;;;;5137064;27;20398;-69
2023/10/04 10:02:33;;;;;;;31.10;4.85;;;;;;;;;;5137085;27;20471;-70
2023/10/04 10:05:00;;;;;;;31.08;4.45;;;;;;;;;;5137745;27;20126;-71
2023/10/04 10:07:31;;;;;;;27.50;3.80;;;;;;;;;;5136928;27;20039;-71
2023/10/04 10:10:01;;;;;;;31.55;4.65;;;;;;;;;;5136918;27;20043;-70
2023/10/04 10:12:31;;;;;;;29.45;4.20;;;;;;;;;;5137106;27;20473;-68
2023/10/04 10:15:00;;;;;;;27.38;3.47;;;;;;;;;;5136607;27;20051;-76
2023/10/04 10:17:27;;;;;;;27.85;3.63;;;;;;;;;;5137269;27;20502;-70
2023/10/04 10:19:55;;;;;;;26.38;4.30;;;;;;;;;;5118515;27;20408;-68
2023/10/04 10:22:21;;;;;;;31.75;4.63;;;;;;;;;;5118276;27;20059;-69
2023/10/04 10:25:13;;;;;;;32.90;4.97;;;;;;;;;;5100928;27;20663;-69
2023/10/04 10:27:39;;;;;;;31.25;4.30;;;;;;;;;;5136677;27;20471;-69
2023/10/04 10:30:08;;;;;;;29.70;4.53;;;;;;;;;;5118699;27;20047;-69
2023/10/04 10:32:34;;;;;;;24.85;5.38;;;;;;;;;;5117540;27;20054;-70
2023/10/04 10:35:06;;;;;;;25.27;4.05;;;;;;;;;;5118077;27;20043;-69
2023/10/04 10:37:38;;;;;;;32.75;4.78;;;;;;;;;;5136349;27;20069;-68
2023/10/04 10:40:08;;;;;;;28.45;4.38;;;;;;;;;;5118251;27;20123;-70
2023/10/04 10:42:53;;;;;;;38.72;5.18;;;;;;;;;;5136468;27;20478;-67
2023/10/04 10:45:29;;;;;;;36.97;4.88;;;;;;;;;;5136685;27;20074;-68
2023/10/04 10:47:56;;;;;;;43.65;5.18;;;;;;;;;;5136135;27;20062;-70
2023/10/04 10:50:37;;;;;;;36.58;5.22;;;;;;;;;;5136274;27;20039;-69
2023/10/04 10:53:05;;;;;;;40.20;5.25;;;;;;;;;;5135999;27;20051;-69
2023/10/04 10:55:33;;;;;;;28.52;5.78;;;;;;;;;;5117932;27;20077;-69
2023/10/04 10:57:59;;;;;;;32.83;4.72;;;;;;;;;;5117849;27;20494;-69
2023/10/04 11:00:31;;;;;;;31.23;4.53;;;;;;;;;;5117929;27;20058;-67
2023/10/04 11:02:58;;;;;;;37.22;4.70;;;;;;;;;;5135965;27;20051;-67
2023/10/04 11:05:25;;;;;;;36.97;4.95;;;;;;;;;;5117717;27;20081;-69
2023/10/04 11:07:52;;;;;;;37.30;5.75;;;;;;;;;;5135767;27;20047;-67
2023/10/04 11:10:19;;;;;;;;;;;;;;;;;;5135731;27;20119;-67
2023/10/04 11:12:46;;;;;;;38.42;6.20;;;;;;;;;;5135711;27;19927;-67
2023/10/04 11:15:13;;;;;;;32.50;5.30;;;;;;;;;;5117487;27;20047;-69
2023/10/04 11:17:40;;;;;;;31.88;5.43;;;;;;;;;;5135821;27;20078;-69
2023/10/04 11:20:09;;;;;;;42.13;5.30;;;;;;;;;;5135794;27;20050;-72
2023/10/04 11:22:36;;;;;;;37.42;5.13;;;;;;;;;;5135329;27;20099;-67
2023/10/04 11:25:02;;;;;;;;;;;;;;;;;;5135597;27;20047;-67
2023/10/04 11:27:28;;;;;;;28.58;4.80;;;;;;;;;;5117161;27;19975;-66
2023/10/04 11:29:55;;;;;;;31.55;4.88;;;;;;;;;;5135205;27;20101;-67
2023/10/04 11:32:21;;;;;;;;;;;;;;;;;;5136095;27;20095;-67
2023/10/04 11:34:48;;;;;;;35.70;4.90;;;;;;;;;;5136157;27;20235;-67
2023/10/04 11:37:14;;;;;;;41.13;5.30;;;;;;;;;;5135034;27;20050;-68
2023/10/04 11:39:41;;;;;;;28.40;5.33;;;;;;;;;;5116949;27;20135;-67
2023/10/04 11:42:21;;;;;;;28.45;4.22;;;;;;;;;;5135307;27;20058;-67
2023/10/04 11:44:48;;;;;;;43.88;5.57;;;;;;;;;;5135196;27;20051;-69
2023/10/04 11:47:15;;;;;;;28.27;5.03;;;;;;;;;;5083332;27;20055;-68
2023/10/04 11:49:54;;;;;;;40.53;5.57;;;;;;;;;;5100636;27;20096;-70
2023/10/04 11:52:21;;;;;;;31.08;5.32;;;;;;;;;;5116991;27;20050;-70
2023/10/04 11:54:48;;;;;;;;;;;;;;;;;;5135154;27;20127;-68
2023/10/04 11:57:27;;;;;;;30.75;4.93;;;;;;;;;;5099938;27;19927;-67
2023/10/04 11:59:56;;;;;;;38.25;4.95;;;;;;;;;;5116568;27;20130;-69
2023/10/04 12:02:22;;;;;;;28.02;5.72;;;;;;;;;;5116401;27;20125;-67
2023/10/04 12:04:49;;;;;;;36.55;5.70;;;;;;;;;;5134493;27;20509;-69
2023/10/04 12:07:15;;;;;;;39.40;5.47;;;;;;;;;;5116303;27;20054;-70
2023/10/04 12:09:41;;;;;;;35.75;4.90;;;;;;;;;;5116402;27;20047;-68
2023/10/04 12:12:08;;;;;;;34.90;5.20;;;;;;;;;;5134536;27;20134;-67
2023/10/04 12:14:34;;;;;;;35.60;5.57;;;;;;;;;;5134671;27;20134;-68
2023/10/04 12:17:03;;;;;;;29.33;5.28;;;;;;;;;;5116257;27;20342;-69
2023/10/04 12:19:30;;;;;;;33.22;5.43;;;;;;;;;;5134412;27;20062;-69
2023/10/04 12:21:57;;;;;;;37.50;6.03;;;;;;;;;;5117187;27;20058;-70
2023/10/04 12:24:23;;;;;;;35.95;5.75;;;;;;;;;;5116207;27;20126;-69
2023/10/04 12:26:55;;;;;;;31.47;5.27;;;;;;;;;;5101075;27;20049;-68
2023/10/04 12:29:22;;;;;;;32.38;5.38;;;;;;;;;;5135275;27;20043;-70
2023/10/04 12:31:50;;;;;;;;;;;;;;;;;;5135434;27;20043;-68
2023/10/04 12:34:16;;;;;;;36.63;6.45;;;;;;;;;;5134530;28;19972;-74
2023/10/04 12:36:42;;;;;;;32.17;6.10;;;;;;;;;;5135264;28;20106;-68
2023/10/04 12:39:08;;;;;;;34.58;4.90;;;;;;;;;;5116600;28;20064;-69
2023/10/04 12:41:34;;;;;;;31.98;5.80;;;;;;;;;;5134236;28;20086;-68
2023/10/04 12:44:02;;;;;;;30.53;5.77;;;;;;;;;;5117635;28;20059;-70
2023/10/04 12:46:29;;;;;;;29.38;5.68;;;;;;;;;;5116843;28;20330;-69
2023/10/04 12:48:57;;;;;;;38.25;6.15;;;;;;;;;;5134347;28;20445;-68
2023/10/04 12:51:23;;;;;;;31.90;5.53;;;;;;;;;;5134939;28;20047;-71
2023/10/04 12:53:51;;;;;;;31.13;5.00;;;;;;;;;;5116925;28;20051;-68
2023/10/04 12:56:18;;;;;;;25.05;5.45;;;;;;;;;;5138316;27;20126;-67
2023/10/04 12:58:46;;;;;;;27.10;5.45;;;;;;;;;;5087360;27;20076;-69
2023/10/04 13:01:12;;;;;;;27.90;4.55;;;;;;;;;;5087366;27;20071;-68
2023/10/04 13:03:38;;;;;;;40.93;6.10;;;;;;;;;;5120016;27;20047;-68
2023/10/04 13:06:10;;;;;;;33.93;4.90;;;;;;;;;;5138389;27;20311;-69
2023/10/04 13:08:37;;;;;;;29.02;4.40;;;;;;;;;;5138272;27;20487;-68
2023/10/04 13:11:05;;;;;;;31.77;5.18;;;;;;;;;;5138066;27;20046;-69
2023/10/04 13:13:31;;;;;;;34.03;5.78;;;;;;;;;;5137942;27;20043;-69
2023/10/04 13:15:58;;;;;;;24.58;3.53;;;;;;;;;;5119888;27;20129;-69
2023/10/04 13:18:24;;;;;;;34.10;5.72;;;;;;;;;;5137940;27;20050;-68
2023/10/04 13:20:52;;;;;;;34.50;4.30;;;;;;;;;;5102810;27;20077;-68
2023/10/04 13:23:18;;;;;;;25.50;4.80;;;;;;;;;;5137940;27;20043;-68
2023/10/04 13:25:45;;;;;;;;;;;;;;;;;;5138148;27;20054;-68
2023/10/04 13:28:17;;;;;;;;;;;;;;;;;;5138254;27;19967;-69
2023/10/04 13:30:46;;;;;;;28.92;5.15;;;;;;;;;;5119355;27;19971;-69
2023/10/04 13:33:12;;;;;;;34.75;5.20;;;;;;;;;;5102381;27;20503;-70
2023/10/04 13:35:39;;;;;;;27.70;5.32;;;;;;;;;;5119449;27;20047;-67
2023/10/04 13:38:05;;;;;;;27.23;5.85;;;;;;;;;;5103140;27;20456;-69
2023/10/04 13:40:33;;;;;;;35.53;5.20;;;;;;;;;;5137431;27;20127;-68
2023/10/04 13:43:00;;;;;;;32.28;5.10;;;;;;;;;;5137659;27;20059;-67
2023/10/04 13:45:27;;;;;;;;;;;;;;;;;;5119795;27;20051;-70
2023/10/04 13:47:58;;;;;;;35.58;5.85;;;;;;;;;;5138004;27;19919;-69
2023/10/04 13:50:26;;;;;;;36.85;6.63;;;;;;;;;;5137443;27;20054;-69
2023/10/04 13:52:52;;;;;;;31.73;6.30;;;;;;;;;;5137411;27;20057;-69
2023/10/04 13:55:23;;;;;;;33.00;6.40;;;;;;;;;;5102511;27;20390;-69
2023/10/04 13:57:50;;;;;;;33.15;6.70;;;;;;;;;;5086813;27;20413;-68
2023/10/04 14:00:22;;;;;;;43.03;7.03;;;;;;;;;;5118909;27;20051;-70
2023/10/04 14:02:54;;;;;;;31.83;7.43;;;;;;;;;;5102851;27;20039;-68
2023/10/04 14:05:20;;;;;;;40.45;7.10;;;;;;;;;;5102407;27;20572;-70
2023/10/04 14:07:50;;;;;;;42.25;7.22;;;;;;;;;;5117958;27;20082;-68
2023/10/04 14:10:24;;;;;;;34.95;7.45;;;;;;;;;;5119219;27;20043;-68
2023/10/04 14:12:55;;;;;;;38.38;8.25;;;;;;;;;;5137819;27;20391;-69
2023/10/04 14:15:22;;;;;;;34.67;8.38;;;;;;;;;;5118836;27;20103;-68
2023/10/04 14:17:49;;;;;;;38.63;8.15;;;;;;;;;;5136936;27;20499;-68
2023/10/04 14:20:16;;;;;;;38.58;7.30;;;;;;;;;;5136815;27;20077;-68
2023/10/04 14:22:43;;;;;;;;;;;;;;;;;;5119191;27;20085;-68
2023/10/04 14:25:11;;;;;;;33.40;6.47;;;;;;;;;;5118432;27;19919;-69
2023/10/04 14:27:38;;;;;;;34.80;7.38;;;;;;;;;;5118295;27;20131;-70
2023/10/04 14:30:08;;;;;;;32.55;7.25;;;;;;;;;;5136022;27;20501;-70
2023/10/04 14:32:35;;;;;;;34.10;6.88;;;;;;;;;;5117986;27;20054;-69
2023/10/04 14:35:03;;;;;;;31.63;6.07;;;;;;;;;;5136321;27;20051;-68
2023/10/04 14:37:29;;;;;;;40.40;8.15;;;;;;;;;;5117990;27;20050;-69
2023/10/04 14:39:58;;;;;;;27.52;6.72;;;;;;;;;;5136056;27;20056;-67
2023/10/04 14:42:24;;;;;;;33.97;7.53;;;;;;;;;;5136060;27;20063;-68
2023/10/04 14:44:51;;;;;;;32.43;6.87;;;;;;;;;;5117933;27;20138;-69